Time;durP1;ratioP1;P1;durP2;ratioP2;P2;SDS_P1;SDS_P2;PMS_P1;PMS_P2;Temp;Humidity;BMP_temperature;BMP_pressure;BME280_temperature;BME280_humidity;BME280_pressure;Samples;Min_cycle;Max_cycle;Signal;HPM_P1;HPM_P2
2021/10/30 00:01:20;;;;;;;13.38;9.32;;;13.50;82.70;;;;;;4939202;28;94376;-92
2021/10/30 00:03:47;;;;;;;10.98;9.55;;;13.50;83.10;;;;;;4923423;28;92397;-92
2021/10/30 00:06:14;;;;;;;12.63;9.50;;;13.40;83.10;;;;;;4939371;28;92559;-92
2021/10/30 00:08:41;;;;;;;10.43;8.13;;;13.40;83.20;;;;;;4910111;28;93289;-92
2021/10/30 00:11:08;;;;;;;15.90;10.10;;;13.30;83.20;;;;;;4926411;28;95383;-92
2021/10/30 00:13:35;;;;;;;15.25;10.00;;;13.30;83.10;;;;;;4941866;28;92517;-92
2021/10/30 00:16:02;;;;;;;13.18;10.02;;;13.30;83.30;;;;;;4958694;28;91858;-92
2021/10/30 00:18:30;;;;;;;11.60;9.57;;;13.30;83.00;;;;;;4909416;28;95422;-92
2021/10/30 00:20:58;;;;;;;10.80;9.48;;;13.30;83.10;;;;;;4926540;28;93078;-91
2021/10/30 00:23:26;;;;;;;15.13;9.73;;;13.20;83.30;;;;;;4910086;28;94821;-91
2021/10/30 00:25:52;;;;;;;10.77;9.65;;;13.20;83.30;;;;;;4910602;28;92498;-92
2021/10/30 00:28:19;;;;;;;15.50;9.88;;;13.20;83.40;;;;;;4910439;28;93331;-92
2021/10/30 00:30:46;;;;;;;11.43;10.18;;;13.10;83.30;;;;;;4910185;28;92187;-91
2021/10/30 00:33:13;;;;;;;12.30;9.85;;;13.10;83.70;;;;;;4925749;28;92384;-92
2021/10/30 00:35:40;;;;;;;14.15;9.77;;;13.10;83.70;;;;;;4926228;28;92574;-92
2021/10/30 00:38:07;;;;;;;13.45;10.27;;;13.00;83.70;;;;;;4909347;28;95683;-92
2021/10/30 00:40:34;;;;;;;14.75;10.00;;;13.00;83.80;;;;;;4957280;28;106254;-92
2021/10/30 00:43:01;;;;;;;11.60;9.32;;;13.00;83.80;;;;;;4925224;28;92389;-92
2021/10/30 00:45:29;;;;;;;12.07;10.40;;;12.90;84.10;;;;;;4942147;28;92315;-92
2021/10/30 00:47:56;;;;;;;9.68;8.75;;;12.90;83.90;;;;;;4924452;28;96052;-91
2021/10/30 00:50:23;;;;;;;12.10;9.13;;;12.80;84.20;;;;;;4912055;28;95422;-92
2021/10/30 00:52:53;;;;;;;13.50;10.48;;;12.80;84.30;;;;;;4943005;28;92608;-92
2021/10/30 00:55:23;;;;;;;11.88;9.13;;;12.80;84.20;;;;;;4925807;28;92500;-92
2021/10/30 00:57:52;;;;;;;11.48;10.27;;;12.80;84.40;;;;;;4958376;28;96259;-91
2021/10/30 01:00:19;;;;;;;12.57;9.93;;;12.80;84.70;;;;;;4924645;28;95282;-92
2021/10/30 01:02:46;;;;;;;13.27;9.98;;;12.70;84.50;;;;;;4910300;28;92485;-92
2021/10/30 01:05:13;;;;;;;10.23;9.20;;;12.70;84.40;;;;;;4926180;28;91807;-92
2021/10/30 01:07:40;;;;;;;11.48;9.18;;;12.60;85.10;;;;;;4942480;28;92266;-91
2021/10/30 01:10:08;;;;;;;11.48;10.30;;;12.60;84.60;;;;;;4942064;28;96063;-91
2021/10/30 01:12:35;;;;;;;12.40;9.25;;;12.60;84.40;;;;;;4940162;28;94818;-92
2021/10/30 01:15:05;;;;;;;10.43;8.75;;;12.50;84.70;;;;;;4941603;28;92562;-91
2021/10/30 01:17:33;;;;;;;9.43;8.52;;;12.50;84.80;;;;;;4941324;28;95997;-91
2021/10/30 01:20:00;;;;;;;10.65;7.75;;;12.40;84.90;;;;;;4940622;28;93263;-92
2021/10/30 01:22:28;;;;;;;9.52;7.70;;;12.40;85.00;;;;;;4941889;28;92605;-92
2021/10/30 01:24:55;;;;;;;11.15;8.18;;;12.30;85.20;;;;;;4959250;28;92446;-91
2021/10/30 01:27:22;;;;;;;9.52;7.40;;;12.30;85.20;;;;;;4941280;28;96449;-92
2021/10/30 01:29:51;;;;;;;8.75;7.85;;;12.30;85.40;;;;;;4958135;28;95389;-92
2021/10/30 01:32:19;;;;;;;7.97;7.18;;;12.30;85.30;;;;;;4925451;28;92472;-92
2021/10/30 01:34:47;;;;;;;11.07;7.30;;;12.20;85.60;;;;;;4925260;28;92486;-91
2021/10/30 01:37:14;;;;;;;9.95;7.30;;;12.20;85.50;;;;;;4923833;28;98799;-92
2021/10/30 01:39:42;;;;;;;10.02;7.82;;;12.20;85.60;;;;;;4924566;28;98489;-92
2021/10/30 01:42:09;;;;;;;10.20;7.70;;;12.10;85.70;;;;;;4957756;28;92314;-92
2021/10/30 01:44:36;;;;;;;10.65;7.72;;;12.10;85.80;;;;;;4941236;28;92541;-91
2021/10/30 01:47:03;;;;;;;10.48;8.25;;;12.10;85.90;;;;;;4957206;28;95982;-92
2021/10/30 01:49:30;;;;;;;11.18;8.02;;;12.10;86.00;;;;;;4941021;28;95370;-91
2021/10/30 01:51:58;;;;;;;8.93;7.47;;;12.00;86.10;;;;;;4971496;28;92389;-92
2021/10/30 01:54:25;;;;;;;10.93;8.88;;;12.00;86.10;;;;;;4925121;28;93932;-91
2021/10/30 01:56:53;;;;;;;10.45;9.23;;;12.10;85.90;;;;;;4957106;28;95693;-92
2021/10/30 01:59:20;;;;;;;12.15;9.80;;;12.10;85.90;;;;;;4940532;28;93306;-92
2021/10/30 02:01:47;;;;;;;12.88;10.07;;;12.00;85.90;;;;;;4939904;28;94849;-92
2021/10/30 02:04:14;;;;;;;10.70;9.32;;;12.00;86.00;;;;;;4940474;28;92495;-92
2021/10/30 02:06:41;;;;;;;11.90;9.05;;;12.00;86.10;;;;;;4940280;28;95837;-92
2021/10/30 02:09:08;;;;;;;11.43;9.55;;;11.90;86.60;;;;;;4956819;28;96272;-92
2021/10/30 02:11:35;;;;;;;11.02;9.85;;;11.90;86.90;;;;;;4941054;28;92472;-92
2021/10/30 02:14:04;;;;;;;14.52;10.43;;;11.90;87.00;;;;;;4940322;28;92529;-91
2021/10/30 02:16:34;;;;;;;11.88;9.65;;;11.90;86.90;;;;;;4939840;28;95765;-92
2021/10/30 02:19:01;;;;;;;12.40;10.02;;;11.90;87.20;;;;;;4924393;28;95512;-92
2021/10/30 02:21:28;;;;;;;13.30;10.35;;;11.90;87.20;;;;;;4956287;28;92590;-92
2021/10/30 02:24:04;;;;;;;14.45;10.82;;;11.80;87.20;;;;;;4940230;28;92538;-92
2021/10/30 02:26:31;;;;;;;13.65;10.70;;;11.80;87.10;;;;;;4923119;28;98265;-92
2021/10/30 02:28:58;;;;;;;12.77;11.07;;;11.80;87.30;;;;;;4955158;28;118004;-92
2021/10/30 02:31:25;;;;;;;13.75;11.38;;;11.80;87.50;;;;;;4923574;28;92525;-92
2021/10/30 02:33:52;;;;;;;15.02;11.55;;;11.80;88.00;;;;;;4939729;28;92419;-92
2021/10/30 02:36:19;;;;;;;15.80;11.55;;;11.80;87.40;;;;;;4939628;28;96097;-92
2021/10/30 02:38:46;;;;;;;15.55;11.57;;;11.80;87.40;;;;;;4939556;28;94837;-92
2021/10/30 02:41:13;;;;;;;15.80;12.18;;;11.80;87.40;;;;;;4939958;28;92126;-92
2021/10/30 02:43:41;;;;;;;15.40;12.80;;;11.80;87.60;;;;;;4939782;28;91875;-92
2021/10/30 02:46:08;;;;;;;17.52;13.02;;;11.80;87.60;;;;;;4907274;28;101216;-93
2021/10/30 02:48:35;;;;;;;17.50;12.73;;;11.80;87.80;;;;;;4923475;28;95490;-91
2021/10/30 02:51:02;;;;;;;19.17;13.75;;;11.70;87.60;;;;;;4938188;28;94786;-92
2021/10/30 02:53:29;;;;;;;14.65;11.90;;;11.70;87.60;;;;;;4939923;28;92232;-92
2021/10/30 02:55:56;;;;;;;18.17;13.05;;;11.70;87.80;;;;;;4939736;28;93432;-92
2021/10/30 02:58:23;;;;;;;16.40;13.82;;;11.70;87.70;;;;;;4955944;28;93277;-92
2021/10/30 03:05:11;;;;;;;16.58;13.40;;;11.80;87.30;;;;;;4956535;28;92326;-91
2021/10/30 03:07:38;;;;;;;16.23;11.48;;;11.70;87.50;;;;;;4955728;28;93304;-92
2021/10/30 03:10:06;;;;;;;17.20;13.35;;;11.70;87.70;;;;;;4955839;28;93113;-92
2021/10/30 03:12:34;;;;;;;16.67;12.65;;;11.70;87.80;;;;;;4922964;28;99670;-92
2021/10/30 03:15:04;;;;;;;16.30;13.32;;;11.70;87.90;;;;;;4955387;28;92523;-92
2021/10/30 03:17:31;;;;;;;18.33;13.63;;;11.70;87.90;;;;;;4938059;28;95740;-92
2021/10/30 03:19:58;;;;;;;18.52;14.75;;;11.70;87.90;;;;;;4939077;28;95730;-92
2021/10/30 03:22:25;;;;;;;20.02;15.10;;;11.70;87.70;;;;;;4939203;28;92286;-92
2021/10/30 03:24:53;;;;;;;21.80;14.57;;;11.70;87.60;;;;;;4939364;28;92460;-92
2021/10/30 03:27:20;;;;;;;20.30;15.32;;;11.70;87.70;;;;;;4955084;28;95964;-92
2021/10/30 03:29:48;;;;;;;20.70;16.33;;;11.70;87.70;;;;;;4938964;28;95867;-92
2021/10/30 03:32:15;;;;;;;22.80;17.38;;;11.70;87.60;;;;;;4907449;28;92369;-92
2021/10/30 03:34:42;;;;;;;21.10;16.25;;;11.70;87.60;;;;;;4923271;28;91865;-91
2021/10/30 03:37:11;;;;;;;20.60;17.73;;;11.70;87.40;;;;;;4904027;28;96124;-92
2021/10/30 03:39:38;;;;;;;22.40;17.83;;;11.70;87.30;;;;;;4903467;28;95915;-92
2021/10/30 03:42:05;;;;;;;23.00;17.00;;;11.80;87.50;;;;;;4918899;28;94654;-92
2021/10/30 03:44:32;;;;;;;22.67;18.55;;;11.80;87.20;;;;;;4907039;28;92517;-93
2021/10/30 03:47:00;;;;;;;26.52;19.13;;;11.80;87.20;;;;;;4906718;28;95671;-92
2021/10/30 03:49:27;;;;;;;24.85;19.50;;;11.80;87.20;;;;;;4906974;28;95699;-93
2021/10/30 03:51:54;;;;;;;27.30;19.98;;;11.90;87.00;;;;;;4923239;28;92528;-92
2021/10/30 03:54:20;;;;;;;25.15;19.15;;;11.90;86.70;;;;;;4891161;28;95078;-92
2021/10/30 03:56:48;;;;;;;26.25;19.60;;;11.90;86.80;;;;;;4907098;28;96015;-92
2021/10/30 03:59:15;;;;;;;26.95;21.05;;;11.90;86.80;;;;;;4902178;28;96134;-91
2021/10/30 04:01:42;;;;;;;28.85;19.83;;;12.00;86.70;;;;;;4923304;28;92414;-92
2021/10/30 04:04:10;;;;;;;27.02;19.38;;;11.90;86.60;;;;;;4906937;28;92478;-92
2021/10/30 04:06:37;;;;;;;28.27;19.23;;;12.00;86.60;;;;;;4905427;28;95798;-92
2021/10/30 04:09:04;;;;;;;26.45;21.00;;;12.00;86.50;;;;;;4906319;28;98728;-92
2021/10/30 04:11:31;;;;;;;27.42;18.83;;;12.00;86.40;;;;;;4938773;28;92335;-92
2021/10/30 04:13:58;;;;;;;26.27;18.88;;;12.00;86.50;;;;;;4922727;28;92548;-91
2021/10/30 04:16:25;;;;;;;28.27;20.27;;;12.00;86.50;;;;;;4906624;28;93596;-92
2021/10/30 04:18:52;;;;;;;25.67;18.33;;;12.00;86.20;;;;;;4906462;28;96131;-92
2021/10/30 04:21:19;;;;;;;23.08;17.20;;;12.00;86.20;;;;;;4907313;28;92369;-92
2021/10/30 04:23:46;;;;;;;27.13;19.50;;;12.00;86.20;;;;;;4875249;28;91834;-92
2021/10/30 04:26:13;;;;;;;25.30;20.15;;;12.00;86.30;;;;;;4906303;28;95833;-92
2021/10/30 04:28:40;;;;;;;26.67;20.35;;;12.00;86.30;;;;;;4906757;28;93160;-91
2021/10/30 04:31:09;;;;;;;28.42;20.88;;;12.10;86.10;;;;;;4889218;28;94766;-92
2021/10/30 04:33:43;;;;;;;30.75;21.38;;;12.10;86.00;;;;;;4907508;28;92264;-92
2021/10/30 04:36:17;;;;;;;26.70;19.23;;;12.10;85.80;;;;;;4921984;28;96243;-92
2021/10/30 04:38:46;;;;;;;27.02;21.15;;;12.10;86.10;;;;;;4905967;28;96291;-91
2021/10/30 04:41:13;;;;;;;24.75;20.10;;;12.10;85.90;;;;;;4905783;28;107612;-92
2021/10/30 04:43:40;;;;;;;27.95;17.65;;;12.10;85.80;;;;;;4906721;28;92599;-91
2021/10/30 04:46:08;;;;;;;26.90;20.52;;;12.10;85.90;;;;;;4890341;28;93366;-92
2021/10/30 04:48:36;;;;;;;26.05;20.48;;;12.20;85.60;;;;;;4906356;28;95965;-92
2021/10/30 04:51:05;;;;;;;29.20;20.52;;;12.20;85.20;;;;;;4921691;28;92466;-92
2021/10/30 04:53:40;;;;;;;25.85;20.52;;;12.20;85.00;;;;;;4905819;28;92555;-92
2021/10/30 04:56:08;;;;;;;26.98;20.13;;;12.30;84.80;;;;;;4938211;28;96192;-91
2021/10/30 04:58:36;;;;;;;26.98;20.88;;;12.20;84.80;;;;;;4939191;28;95282;-91
2021/10/30 05:05:09;;;;;;;27.67;20.70;;;12.30;84.60;;;;;;4939498;28;92403;-92
2021/10/30 05:07:36;;;;;;;23.83;17.77;;;12.20;84.80;;;;;;4889707;28;95745;-92
2021/10/30 05:10:04;;;;;;;24.55;18.40;;;12.20;84.80;;;;;;4905200;28;105099;-91
2021/10/30 05:12:31;;;;;;;25.13;19.08;;;12.20;84.70;;;;;;4939020;28;92327;-91
2021/10/30 05:14:58;;;;;;;26.17;20.00;;;12.20;84.50;;;;;;4905977;28;91494;-91
2021/10/30 05:17:27;;;;;;;23.23;17.85;;;12.30;84.30;;;;;;4937319;28;95811;-92
2021/10/30 05:19:54;;;;;;;18.98;14.95;;;12.30;84.10;;;;;;4937464;28;95487;-91
2021/10/30 05:22:21;;;;;;;20.17;16.85;;;12.20;84.10;;;;;;4904358;28;94856;-91
2021/10/30 05:24:48;;;;;;;19.55;15.05;;;12.20;83.90;;;;;;4905677;28;92462;-92
2021/10/30 05:27:16;;;;;;;18.67;15.88;;;12.20;83.80;;;;;;4921733;28;93350;-92
2021/10/30 05:29:43;;;;;;;15.23;12.65;;;12.20;83.70;;;;;;4905614;28;93368;-92
2021/10/30 05:32:10;;;;;;;19.40;14.10;;;12.20;83.40;;;;;;4921760;28;92367;-92
2021/10/30 05:34:57;;;;;;;16.38;12.68;;;12.20;83.20;;;;;;4911124;28;92342;-91
2021/10/30 05:37:43;;;;;;;15.20;12.02;;;12.20;82.80;;;;;;4921132;28;92709;-91
2021/10/30 05:40:11;;;;;;;14.18;11.77;;;12.20;82.50;;;;;;4922255;28;91703;-91
2021/10/30 05:42:41;;;;;;;12.82;11.10;;;12.30;82.40;;;;;;4920224;28;111734;-91
2021/10/30 05:45:09;;;;;;;13.00;10.90;;;12.30;81.80;;;;;;4889600;28;92179;-92
2021/10/30 05:47:38;;;;;;;14.82;10.98;;;12.40;81.20;;;;;;4919793;28;98578;-91
2021/10/30 05:50:07;;;;;;;14.73;11.45;;;12.40;81.20;;;;;;4921328;28;95730;-91
2021/10/30 05:52:34;;;;;;;13.23;11.02;;;12.40;80.50;;;;;;4905167;28;92165;-92
2021/10/30 05:55:01;;;;;;;13.48;9.88;;;12.40;80.50;;;;;;4905046;28;92474;-91
2021/10/30 05:57:28;;;;;;;12.48;10.13;;;12.40;80.20;;;;;;4905688;28;93077;-91
2021/10/30 05:59:55;;;;;;;11.32;10.18;;;12.50;80.20;;;;;;4904336;28;95600;-91
2021/10/30 06:02:22;;;;;;;13.10;10.52;;;12.40;79.90;;;;;;4905163;28;92304;-93
2021/10/30 06:04:49;;;;;;;10.90;9.20;;;12.50;79.60;;;;;;4904624;28;91875;-91
2021/10/30 06:07:16;;;;;;;11.48;8.68;;;12.50;79.40;;;;;;4937229;28;95864;-92
2021/10/30 06:09:43;;;;;;;13.52;9.82;;;12.50;78.80;;;;;;4921268;28;95522;-91
2021/10/30 06:12:10;;;;;;;13.45;9.98;;;12.50;79.00;;;;;;4920034;28;94693;-91
2021/10/30 06:14:38;;;;;;;11.88;10.23;;;12.60;78.50;;;;;;4938183;28;92445;-92
2021/10/30 06:17:05;;;;;;;13.05;10.15;;;12.60;78.50;;;;;;4937405;28;93543;-91
2021/10/30 06:19:32;;;;;;;10.48;9.38;;;12.60;78.30;;;;;;4920639;28;93492;-91
2021/10/30 06:21:59;;;;;;;13.68;10.07;;;12.60;78.00;;;;;;4953014;28;92472;-91
2021/10/30 06:24:26;;;;;;;10.30;9.00;;;12.70;77.70;;;;;;4937011;28;92536;-91
2021/10/30 06:26:53;;;;;;;11.40;8.85;;;12.60;77.10;;;;;;4920352;28;96181;-91
2021/10/30 06:29:20;;;;;;;10.50;9.25;;;12.60;77.00;;;;;;4938776;28;93114;-91
2021/10/30 06:31:47;;;;;;;10.23;8.68;;;12.70;77.00;;;;;;4936984;28;92545;-91
2021/10/30 06:34:14;;;;;;;13.25;8.35;;;12.70;76.80;;;;;;4921237;28;92461;-92
2021/10/30 06:36:41;;;;;;;14.45;9.88;;;12.60;77.00;;;;;;4918377;28;98255;-91
2021/10/30 06:39:08;;;;;;;10.75;9.23;;;12.70;77.10;;;;;;4952770;28;97854;-92
2021/10/30 06:41:45;;;;;;;11.88;7.88;;;12.70;76.90;;;;;;4920744;28;92262;-91
2021/10/30 06:44:14;;;;;;;10.23;8.55;;;12.70;76.50;;;;;;4920580;28;92433;-91
2021/10/30 06:46:41;;;;;;;9.80;7.15;;;12.70;76.20;;;;;;4936735;28;93193;-91
2021/10/30 06:49:11;;;;;;;11.65;8.68;;;12.70;76.60;;;;;;4936742;28;95411;-91
2021/10/30 06:51:39;;;;;;;11.05;7.95;;;12.80;76.20;;;;;;4920702;28;92509;-91
2021/10/30 06:54:07;;;;;;;11.73;8.18;;;12.80;76.00;;;;;;4936366;28;107994;-91
2021/10/30 06:56:36;;;;;;;8.82;7.72;;;12.80;76.10;;;;;;4919814;28;96465;-91
2021/10/30 06:59:04;;;;;;;9.35;8.20;;;12.80;75.80;;;;;;4937667;28;93219;-91
2021/10/30 07:01:33;;;;;;;8.07;7.13;;;12.80;76.00;;;;;;4954587;28;95249;-91
2021/10/30 07:04:04;;;;;;;10.43;8.63;;;12.80;76.20;;;;;;4955511;28;92535;-91
2021/10/30 07:06:32;;;;;;;11.35;8.02;;;12.80;76.10;;;;;;4938826;28;95875;-91
2021/10/30 07:08:59;;;;;;;13.20;8.18;;;12.80;75.80;;;;;;4939159;28;93208;-91
2021/10/30 07:11:27;;;;;;;10.73;8.52;;;12.80;76.00;;;;;;4971125;28;92446;-91
2021/10/30 07:13:55;;;;;;;10.27;8.32;;;12.90;76.40;;;;;;4907739;28;92351;-91
2021/10/30 07:16:22;;;;;;;11.32;8.27;;;13.00;76.20;;;;;;4938671;28;96186;-91
2021/10/30 07:18:49;;;;;;;11.25;8.35;;;13.00;76.10;;;;;;4910431;28;94507;-91
2021/10/30 07:21:16;;;;;;;11.48;7.68;;;12.90;76.50;;;;;;4925880;28;102025;-91
2021/10/30 07:23:43;;;;;;;9.48;8.55;;;12.90;77.00;;;;;;4927011;28;92898;-91
2021/10/30 07:26:10;;;;;;;8.95;8.00;;;12.90;77.10;;;;;;4925034;28;98479;-92
2021/10/30 07:28:39;;;;;;;10.10;8.18;;;12.90;77.30;;;;;;4942537;28;95547;-91
2021/10/30 07:31:06;;;;;;;9.40;8.18;;;12.90;77.30;;;;;;4926621;28;92372;-92
2021/10/30 07:33:33;;;;;;;10.13;8.32;;;12.90;77.40;;;;;;4942278;28;92828;-91
2021/10/30 07:36:00;;;;;;;10.05;8.75;;;12.90;77.80;;;;;;4925711;28;95652;-91
2021/10/30 07:38:27;;;;;;;12.88;8.80;;;12.90;78.10;;;;;;4925774;28;95945;-91
2021/10/30 07:40:54;;;;;;;11.30;9.38;;;12.90;78.20;;;;;;4910014;28;92526;-91
2021/10/30 07:43:22;;;;;;;9.80;8.80;;;13.00;78.30;;;;;;4894959;28;97239;-90
2021/10/30 07:45:49;;;;;;;9.77;7.97;;;12.90;78.70;;;;;;4942215;28;93300;-90
2021/10/30 07:48:17;;;;;;;10.70;8.02;;;12.90;78.70;;;;;;4959548;28;93399;-90
2021/10/30 07:50:44;;;;;;;10.00;8.35;;;12.90;79.20;;;;;;4938197;28;94847;-89
2021/10/30 07:53:11;;;;;;;9.40;8.45;;;12.80;79.20;;;;;;4939660;28;92482;-90
2021/10/30 07:55:38;;;;;;;10.02;8.50;;;12.80;80.00;;;;;;4941812;28;95910;-90
2021/10/30 07:58:05;;;;;;;7.75;6.95;;;12.80;79.80;;;;;;4941881;28;96289;-90
2021/10/30 08:00:33;;;;;;;10.60;8.98;;;12.80;80.00;;;;;;4922545;28;92544;-89
2021/10/30 08:03:00;;;;;;;8.60;7.70;;;12.80;80.40;;;;;;4923039;28;92533;-89
2021/10/30 08:05:27;;;;;;;11.25;9.38;;;12.70;80.50;;;;;;4938655;28;93328;-89
2021/10/30 08:07:54;;;;;;;10.05;7.97;;;12.80;81.10;;;;;;4923073;28;93158;-90
2021/10/30 08:10:23;;;;;;;10.45;9.38;;;12.70;80.70;;;;;;4954894;28;96046;-90
2021/10/30 08:12:50;;;;;;;9.90;8.90;;;12.80;81.00;;;;;;4906743;28;92663;-90
2021/10/30 08:15:18;;;;;;;12.45;9.15;;;12.80;81.20;;;;;;4921181;28;95733;-92
2021/10/30 08:17:46;;;;;;;10.20;8.20;;;12.80;80.90;;;;;;4922197;28;95445;-89
2021/10/30 08:20:13;;;;;;;10.82;9.20;;;12.80;81.10;;;;;;4954678;28;100979;-90
2021/10/30 08:22:40;;;;;;;11.32;9.50;;;12.70;81.30;;;;;;4888037;28;92472;-90
2021/10/30 08:25:07;;;;;;;10.93;8.98;;;12.70;81.70;;;;;;4954412;28;93826;-90
2021/10/30 08:27:34;;;;;;;11.80;9.80;;;12.80;81.40;;;;;;4941289;28;95516;-89
2021/10/30 08:30:04;;;;;;;9.98;8.98;;;12.80;81.80;;;;;;4942504;28;92521;-89
2021/10/30 08:32:33;;;;;;;9.45;8.45;;;12.70;81.80;;;;;;4957235;28;91735;-90
2021/10/30 08:35:00;;;;;;;10.13;8.93;;;12.70;81.60;;;;;;4941324;28;95030;-90
2021/10/30 08:37:28;;;;;;;10.30;8.57;;;12.60;82.50;;;;;;4940976;28;93186;-90
2021/10/30 08:39:55;;;;;;;11.63;9.60;;;12.70;82.90;;;;;;4923479;28;95350;-90
2021/10/30 08:42:22;;;;;;;12.18;9.27;;;12.70;83.30;;;;;;4925076;28;92640;-89
2021/10/30 08:44:50;;;;;;;11.23;9.20;;;12.80;83.00;;;;;;4939932;28;94982;-90
2021/10/30 08:47:19;;;;;;;12.57;8.93;;;12.80;82.90;;;;;;4924417;28;95936;-90
2021/10/30 08:49:46;;;;;;;9.15;7.68;;;12.80;82.90;;;;;;4957032;28;92369;-90
2021/10/30 08:52:13;;;;;;;9.77;8.13;;;12.80;83.10;;;;;;4941096;28;92625;-90
2021/10/30 08:54:40;;;;;;;10.55;9.55;;;12.80;83.00;;;;;;4924301;28;95189;-92
2021/10/30 08:57:08;;;;;;;9.63;8.52;;;12.90;83.10;;;;;;4958616;28;93090;-93
2021/10/30 08:59:46;;;;;;;9.63;8.10;;;12.80;82.80;;;;;;4925082;28;92535;-90
2021/10/30 09:02:29;;;;;;;8.57;7.65;;;12.90;83.30;;;;;;4941114;28;92513;-90
2021/10/30 09:05:10;;;;;;;9.45;8.38;;;12.90;83.30;;;;;;4939975;28;97434;-90
2021/10/30 09:07:37;;;;;;;12.48;8.02;;;12.90;83.20;;;;;;4925271;28;95687;-90
2021/10/30 09:10:13;;;;;;;11.70;8.20;;;12.90;84.00;;;;;;4936673;28;92357;-89
2021/10/30 09:12:54;;;;;;;9.82;8.82;;;12.90;83.80;;;;;;4938131;28;92460;-92
2021/10/30 09:15:38;;;;;;;9.77;8.30;;;13.00;84.20;;;;;;4939036;28;97871;-92
2021/10/30 09:18:22;;;;;;;8.27;6.95;;;13.10;83.70;;;;;;4939299;28;93187;-92
2021/10/30 09:20:52;;;;;;;8.00;6.65;;;13.10;83.10;;;;;;4939889;28;92512;-93
2021/10/30 09:23:23;;;;;;;8.50;7.70;;;13.20;83.30;;;;;;4906115;28;103489;-92
2021/10/30 09:26:02;;;;;;;10.55;6.68;;;13.30;83.20;;;;;;4905748;28;95999;-93
2021/10/30 09:28:32;;;;;;;7.18;6.25;;;13.40;82.90;;;;;;4939394;28;93336;-92
2021/10/30 09:31:04;;;;;;;8.35;7.47;;;13.50;82.80;;;;;;4938226;28;94895;-92
2021/10/30 09:33:33;;;;;;;9.73;7.57;;;13.60;82.50;;;;;;4921108;28;92526;-93
2021/10/30 09:36:12;;;;;;;8.88;7.57;;;13.70;81.80;;;;;;4937571;28;96304;-90
2021/10/30 09:38:41;;;;;;;8.45;7.03;;;13.70;81.70;;;;;;4921902;28;92337;-90
2021/10/30 09:41:28;;;;;;;7.55;6.00;;;13.70;81.70;;;;;;4937138;28;92223;-90
2021/10/30 09:44:04;;;;;;;7.65;6.63;;;13.70;81.30;;;;;;4905932;28;92379;-91
2021/10/30 09:46:34;;;;;;;7.60;6.90;;;13.70;80.90;;;;;;4921133;28;95668;-91
2021/10/30 09:49:24;;;;;;;7.22;6.40;;;13.80;81.10;;;;;;4921774;28;95551;-91
2021/10/30 09:51:55;;;;;;;9.18;6.53;;;13.90;80.70;;;;;;4905534;28;92371;-90
2021/10/30 09:54:34;;;;;;;7.68;6.72;;;13.90;80.30;;;;;;4905509;28;92459;-91
2021/10/30 09:57:02;;;;;;;8.52;7.05;;;14.00;79.90;;;;;;4925548;28;96163;-90
2021/10/30 09:59:36;;;;;;;8.30;7.47;;;14.10;79.90;;;;;;4956771;28;95701;-91
2021/10/30 10:02:05;;;;;;;6.63;6.00;;;14.30;79.30;;;;;;4940411;28;92962;-90
2021/10/30 10:04:34;;;;;;;7.13;6.13;;;14.30;78.60;;;;;;4939864;28;92518;-90
2021/10/30 10:07:04;;;;;;;5.85;5.35;;;14.50;78.00;;;;;;4940629;28;96959;-90
2021/10/30 10:09:31;;;;;;;6.13;5.50;;;14.60;77.50;;;;;;4939339;28;95343;-90
2021/10/30 10:12:02;;;;;;;7.57;6.88;;;14.70;77.20;;;;;;4940536;28;92482;-90
2021/10/30 10:14:31;;;;;;;7.13;6.43;;;14.80;77.30;;;;;;4907019;28;91821;-90
2021/10/30 10:16:58;;;;;;;6.20;5.63;;;14.90;76.90;;;;;;4900882;28;96233;-90
2021/10/30 10:19:25;;;;;;;7.07;6.32;;;14.90;76.50;;;;;;4886664;28;95229;-90
2021/10/30 10:21:54;;;;;;;6.43;5.82;;;15.00;76.20;;;;;;4901174;28;94720;-91
2021/10/30 10:24:35;;;;;;;8.55;5.80;;;15.00;75.60;;;;;;4917815;28;92556;-91
2021/10/30 10:27:04;;;;;;;7.07;6.10;;;15.00;75.20;;;;;;4919561;28;93532;-90
2021/10/30 10:29:54;;;;;;;6.93;6.22;;;15.00;75.10;;;;;;4917836;28;95679;-90
2021/10/30 10:32:24;;;;;;;7.00;6.30;;;15.00;74.70;;;;;;4902760;28;92450;-91
2021/10/30 10:34:52;;;;;;;7.00;6.32;;;15.10;75.10;;;;;;4917560;28;92387;-90
2021/10/30 10:37:24;;;;;;;6.72;6.13;;;15.10;75.20;;;;;;4885234;28;95836;-90
2021/10/30 10:39:57;;;;;;;8.35;5.43;;;15.10;75.30;;;;;;4935202;28;95377;-90
2021/10/30 10:42:43;;;;;;;7.65;5.63;;;15.10;74.80;;;;;;4956062;28;92954;-90
2021/10/30 10:45:15;;;;;;;7.53;6.00;;;15.10;75.50;;;;;;4939633;28;92371;-90
2021/10/30 10:47:49;;;;;;;7.22;5.97;;;15.10;75.70;;;;;;4922285;28;95680;-90
2021/10/30 10:50:28;;;;;;;7.68;6.70;;;15.00;76.10;;;;;;4938976;28;97958;-90
2021/10/30 10:53:06;;;;;;;8.45;6.47;;;14.90;76.90;;;;;;4928530;28;92518;-90
2021/10/30 10:55:38;;;;;;;8.15;7.35;;;14.90;76.90;;;;;;4901208;28;92444;-90
2021/10/30 10:58:07;;;;;;;7.15;6.45;;;14.80;78.00;;;;;;4900226;28;95930;-90
2021/10/30 11:00:35;;;;;;;8.65;6.95;;;14.70;77.80;;;;;;4913050;28;110241;-90
2021/10/30 11:03:03;;;;;;;8.02;6.88;;;14.70;78.00;;;;;;4922942;28;92496;-90
2021/10/30 11:05:35;;;;;;;7.63;6.47;;;14.70;78.00;;;;;;4891126;28;92014;-90
2021/10/30 11:08:11;;;;;;;8.30;6.35;;;14.70;77.70;;;;;;4925084;28;93298;-90
2021/10/30 11:10:42;;;;;;;9.77;6.80;;;14.60;77.70;;;;;;4935144;28;95762;-90
2021/10/30 11:13:13;;;;;;;8.65;7.18;;;14.70;77.80;;;;;;4957344;28;94874;-90
2021/10/30 11:15:42;;;;;;;8.07;7.13;;;14.70;77.70;;;;;;4973758;28;92438;-90
2021/10/30 11:18:23;;;;;;;8.20;7.18;;;14.70;77.60;;;;;;4958367;28;94650;-90
2021/10/30 11:21:14;;;;;;;9.98;7.82;;;14.70;77.20;;;;;;4976798;28;92353;-90
2021/10/30 11:23:43;;;;;;;8.27;6.63;;;14.80;76.90;;;;;;4964649;28;92454;-93
2021/10/30 11:26:31;;;;;;;6.75;6.15;;;14.70;76.80;;;;;;4948646;28;92774;-91
2021/10/30 11:29:09;;;;;;;7.53;6.10;;;14.70;76.50;;;;;;4917689;28;93633;-91
2021/10/30 11:31:37;;;;;;;6.78;5.82;;;14.70;76.00;;;;;;4932641;28;94822;-92
2021/10/30 11:34:07;;;;;;;6.57;5.90;;;14.70;76.50;;;;;;4948195;28;102998;-92
2021/10/30 11:36:37;;;;;;;7.93;6.57;;;14.80;76.60;;;;;;4966046;28;92510;-92
2021/10/30 11:39:14;;;;;;;7.60;6.88;;;14.80;76.40;;;;;;4983633;28;97816;-92
2021/10/30 11:41:43;;;;;;;7.05;6.35;;;14.90;76.50;;;;;;4952614;28;96955;-91
2021/10/30 11:44:13;;;;;;;6.68;5.82;;;14.90;76.30;;;;;;4936480;28;92411;-92
2021/10/30 11:46:54;;;;;;;9.27;6.30;;;15.00;75.80;;;;;;4981876;28;92484;-91
2021/10/30 11:49:24;;;;;;;7.32;6.38;;;15.00;75.20;;;;;;4959891;28;93085;-91
2021/10/30 11:51:51;;;;;;;6.82;5.97;;;15.00;76.00;;;;;;4959422;28;92462;-92
2021/10/30 11:54:22;;;;;;;8.27;7.28;;;15.10;75.70;;;;;;4939697;28;95830;-92
2021/10/30 11:56:49;;;;;;;7.20;6.55;;;15.10;75.70;;;;;;4939669;28;91787;-91
2021/10/30 11:59:16;;;;;;;7.15;6.45;;;15.20;75.90;;;;;;4939893;28;92540;-91
2021/10/30 12:01:56;;;;;;;6.90;6.10;;;15.20;75.80;;;;;;4938765;28;93418;-91
2021/10/30 12:04:26;;;;;;;6.80;5.85;;;15.20;75.90;;;;;;4922586;28;94871;-91
2021/10/30 12:07:11;;;;;;;5.43;4.93;;;15.20;75.70;;;;;;4925611;28;92431;-91
2021/10/30 12:09:44;;;;;;;8.93;5.78;;;15.20;76.10;;;;;;4941668;28;93639;-91
2021/10/30 12:12:19;;;;;;;7.32;6.55;;;15.20;76.50;;;;;;4941747;28;95890;-92
2021/10/30 12:14:52;;;;;;;6.85;6.13;;;15.20;76.70;;;;;;4942022;28;92470;-91
2021/10/30 12:17:28;;;;;;;7.28;6.57;;;15.20;77.00;;;;;;4974612;28;92633;-91
2021/10/30 12:20:08;;;;;;;7.60;6.28;;;15.30;77.40;;;;;;4957743;28;93573;-92
2021/10/30 12:22:43;;;;;;;7.72;6.80;;;15.30;77.00;;;;;;4939911;28;93258;-92
2021/10/30 12:25:26;;;;;;;7.97;6.45;;;15.30;77.20;;;;;;4937750;28;92512;-91
2021/10/30 12:27:57;;;;;;;7.35;6.55;;;15.30;77.50;;;;;;4954343;28;92483;-91
2021/10/30 12:30:27;;;;;;;7.53;6.57;;;15.20;77.30;;;;;;4937096;28;98699;-91
2021/10/30 12:33:05;;;;;;;6.88;6.18;;;15.10;77.40;;;;;;4938222;28;98503;-92
2021/10/30 12:35:32;;;;;;;7.38;6.68;;;15.10;77.20;;;;;;4955474;28;92477;-91
2021/10/30 12:38:17;;;;;;;7.88;6.25;;;15.10;77.40;;;;;;4939524;28;92373;-91
2021/10/30 12:40:49;;;;;;;6.55;5.93;;;15.10;77.30;;;;;;4938294;28;95878;-91
2021/10/30 12:43:22;;;;;;;7.80;6.57;;;15.00;77.60;;;;;;4921541;28;94593;-91
2021/10/30 12:45:53;;;;;;;7.20;6.50;;;15.10;77.00;;;;;;4954913;28;92428;-91
2021/10/30 12:48:22;;;;;;;8.43;5.90;;;15.10;77.40;;;;;;4938695;28;91749;-91
2021/10/30 12:50:59;;;;;;;6.78;6.03;;;15.20;77.00;;;;;;4937902;28;93376;-91
2021/10/30 12:53:33;;;;;;;5.07;4.57;;;15.30;77.00;;;;;;4938230;28;95817;-92
2021/10/30 12:56:01;;;;;;;6.57;5.55;;;15.20;76.90;;;;;;4953422;28;94876;-91
2021/10/30 12:58:55;;;;;;;7.55;4.97;;;15.30;77.30;;;;;;4954534;28;92897;-91